createdAt,value
2019-05-19T00:00:40.704Z,97749.56
2019-05-19T00:03:14.502Z,97748.02
2019-05-19T00:05:48.187Z,97752.38
2019-05-19T00:08:22.160Z,97751.86
2019-05-19T00:10:55.743Z,97748.52
2019-05-19T00:13:29.324Z,97750.42
2019-05-19T00:16:02.931Z,97749.02
2019-05-19T00:18:35.893Z,97751.18
2019-05-19T00:21:09.671Z,97750.81
2019-05-19T00:23:43.026Z,97741.80
2019-05-19T00:26:17.217Z,97737.28
2019-05-19T00:28:50.975Z,97733.62
2019-05-19T00:31:24.716Z,97734.89
2019-05-19T00:33:59.201Z,97736.09
2019-05-19T00:36:33.530Z,97736.64
2019-05-19T00:39:07.458Z,97731.23
2019-05-19T00:41:41.418Z,97730.56
2019-05-19T00:44:15.496Z,97730.23
2019-05-19T00:46:49.077Z,97726.58
2019-05-19T00:49:22.361Z,97733.02
2019-05-19T00:51:56.217Z,97728.92
2019-05-19T00:54:30.673Z,97733.13
2019-05-19T00:57:04.897Z,97731.70
2019-05-19T00:59:41.423Z,97737.11
2019-05-19T01:02:15.771Z,97727.98
2019-05-19T01:04:49.963Z,97726.31
2019-05-19T01:07:23.583Z,97731.34
2019-05-19T01:09:57.203Z,97726.26
2019-05-19T01:12:30.609Z,97722.33
2019-05-19T01:15:05.017Z,97716.78
2019-05-19T01:17:38.913Z,97712.38
2019-05-19T01:20:12.952Z,97708.13
2019-05-19T01:22:46.497Z,97703.68
2019-05-19T01:25:19.968Z,97703.68
2019-05-19T01:27:53.554Z,97698.95
2019-05-19T01:30:26.643Z,97690.63
2019-05-19T01:33:00.356Z,97692.28
2019-05-19T01:35:33.043Z,97692.17
2019-05-19T01:38:06.552Z,97693.64
2019-05-19T01:40:40.414Z,97685.77
2019-05-19T01:43:13.427Z,97687.09
2019-05-19T01:45:46.757Z,97681.02
2019-05-19T01:48:20.847Z,97684.50
2019-05-19T01:50:54.532Z,97676.69
2019-05-19T01:53:29.020Z,97672.08
2019-05-19T01:56:03.162Z,97664.22
2019-05-19T01:58:37.005Z,97670.45
2019-05-19T02:01:11.008Z,97672.39
2019-05-19T02:03:45.365Z,97680.97
2019-05-19T02:06:18.952Z,97681.48
2019-05-19T02:08:52.266Z,97677.36
2019-05-19T02:11:25.859Z,97677.71
2019-05-19T02:13:59.579Z,97676.72
2019-05-19T02:16:33.244Z,97667.70
2019-05-19T02:19:06.372Z,97663.46
2019-05-19T02:21:39.707Z,97664.73
2019-05-19T02:24:13.240Z,97659.92
2019-05-19T02:26:46.532Z,97654.92
2019-05-19T02:29:19.893Z,97659.45
2019-05-19T02:31:52.640Z,97658.46
2019-05-19T02:34:25.794Z,97656.20
2019-05-19T02:36:58.907Z,97650.91
2019-05-19T02:39:33.952Z,97646.86
2019-05-19T02:42:08.757Z,97642.09
2019-05-19T02:44:42.894Z,97642.53
2019-05-19T02:47:18.400Z,97638.09
2019-05-19T02:49:53.259Z,97638.41
2019-05-19T02:52:27.286Z,97637.53
2019-05-19T02:55:01.828Z,97641.47
2019-05-19T02:57:36.407Z,97642.45
2019-05-19T03:00:10.576Z,97635.55
2019-05-19T03:02:43.787Z,97636.86
2019-05-19T03:05:18.208Z,97628.88
2019-05-19T03:07:51.660Z,97631.63
2019-05-19T03:10:24.952Z,97626.50
2019-05-19T03:12:57.957Z,97628.92
2019-05-19T03:15:31.194Z,97628.60
2019-05-19T03:18:04.653Z,97625.47
2019-05-19T03:20:38.401Z,97628.96
2019-05-19T03:23:11.963Z,97626.42
2019-05-19T03:25:44.993Z,97625.85
2019-05-19T03:28:18.752Z,97624.07
2019-05-19T03:31:12.250Z,97630.45
2019-05-19T03:33:49.226Z,97635.38
2019-05-19T03:36:22.656Z,97634.08
2019-05-19T03:38:55.877Z,97629.31
2019-05-19T03:41:29.240Z,97622.92
2019-05-19T03:44:02.806Z,97629.82
2019-05-19T03:46:36.115Z,97635.06
2019-05-19T03:49:09.663Z,97633.12
2019-05-19T03:51:43.344Z,97638.08
2019-05-19T03:54:16.649Z,97631.88
2019-05-19T03:56:49.922Z,97628.07
2019-05-19T03:59:23.427Z,97629.25
2019-05-19T04:01:56.640Z,97636.48
2019-05-19T04:04:29.943Z,97636.00
2019-05-19T04:07:02.941Z,97639.78
2019-05-19T04:09:35.998Z,97629.45
2019-05-19T04:12:09.065Z,97633.51
2019-05-19T04:14:42.462Z,97640.89
2019-05-19T04:17:15.944Z,97641.56
2019-05-19T04:19:48.759Z,97641.44
2019-05-19T04:22:22.318Z,97639.49
2019-05-19T04:24:55.613Z,97638.05
2019-05-19T04:27:28.986Z,97635.78
2019-05-19T04:30:01.984Z,97635.82
2019-05-19T04:32:35.431Z,97634.54
2019-05-19T04:35:09.060Z,97644.91
2019-05-19T04:37:42.271Z,97641.28
2019-05-19T04:40:15.888Z,97642.59
2019-05-19T04:42:49.322Z,97647.55
2019-05-19T04:45:22.693Z,97636.61
2019-05-19T04:47:55.914Z,97637.95
2019-05-19T04:50:29.550Z,97637.58
2019-05-19T04:53:03.042Z,97637.95
2019-05-19T04:55:36.722Z,97638.11
2019-05-19T04:58:10.169Z,97641.76
2019-05-19T05:00:43.689Z,97644.13
2019-05-19T05:03:16.920Z,97647.52
2019-05-19T05:05:49.742Z,97641.41
2019-05-19T05:08:29.713Z,97638.47
2019-05-19T05:10:58.155Z,97647.00
2019-05-19T05:13:31.910Z,97643.74
2019-05-19T05:16:05.358Z,97635.69
2019-05-19T05:18:39.015Z,97636.16
2019-05-19T05:21:12.618Z,97637.05
2019-05-19T05:23:46.017Z,97642.80
2019-05-19T05:26:20.198Z,97634.98
2019-05-19T05:28:54.497Z,97627.41
2019-05-19T05:31:27.529Z,97628.11
2019-05-19T05:34:02.343Z,97627.20
2019-05-19T05:36:36.173Z,97625.86
2019-05-19T05:39:10.111Z,97628.41
2019-05-19T05:41:43.725Z,97624.77
2019-05-19T05:44:17.950Z,97626.69
2019-05-19T05:46:52.103Z,97628.27
2019-05-19T05:49:25.638Z,97631.72
2019-05-19T05:51:59.263Z,97624.02
2019-05-19T05:54:33.136Z,97624.14
2019-05-19T05:57:06.522Z,97620.34
2019-05-19T05:59:39.838Z,97617.02
2019-05-19T06:02:14.223Z,97626.19
2019-05-19T06:04:48.369Z,97620.30
2019-05-19T06:07:23.461Z,97617.20
2019-05-19T06:09:56.865Z,97624.63
2019-05-19T06:12:31.000Z,97620.34
2019-05-19T06:15:04.291Z,97623.63
2019-05-19T06:17:37.735Z,97623.53
2019-05-19T06:20:11.668Z,97623.42
2019-05-19T06:22:55.938Z,97629.72
2019-05-19T06:25:21.353Z,97630.47
2019-05-19T06:27:55.550Z,97625.00
2019-05-19T06:30:29.303Z,97624.41
2019-05-19T06:33:04.637Z,97615.87
2019-05-19T06:35:41.331Z,97621.38
2019-05-19T06:38:18.535Z,97610.58
2019-05-19T06:40:52.187Z,97612.19
2019-05-19T06:43:26.449Z,97617.58
2019-05-19T06:46:00.383Z,97632.28
2019-05-19T06:48:33.768Z,97643.16
2019-05-19T06:51:07.810Z,97639.14
2019-05-19T06:53:41.845Z,97639.08
2019-05-19T06:56:23.275Z,97631.18
2019-05-19T06:58:57.722Z,97627.30
2019-05-19T07:01:33.026Z,97623.69
2019-05-19T07:04:06.485Z,97613.01
2019-05-19T07:06:39.805Z,97620.59
2019-05-19T07:09:13.603Z,97614.69
2019-05-19T07:11:46.800Z,97614.09
2019-05-19T07:14:20.443Z,97615.92
2019-05-19T07:16:54.247Z,97615.58
2019-05-19T07:19:27.507Z,97619.83
2019-05-19T07:22:02.048Z,97615.16
2019-05-19T07:24:36.479Z,97621.91
2019-05-19T07:27:10.629Z,97619.61
2019-05-19T07:29:45.071Z,97627.86
2019-05-19T07:32:19.941Z,97626.28
2019-05-19T07:34:53.435Z,97631.05
2019-05-19T07:37:27.564Z,97626.63
2019-05-19T07:40:04.102Z,97631.33
2019-05-19T07:42:38.877Z,97619.34
2019-05-19T07:45:21.258Z,97622.58
2019-05-19T07:47:57.312Z,97623.34
2019-05-19T07:50:37.689Z,97627.13
2019-05-19T07:53:12.648Z,97620.94
2019-05-19T07:55:48.517Z,97627.40
2019-05-19T07:58:23.980Z,97621.52
2019-05-19T08:00:58.807Z,97621.28
2019-05-19T08:03:32.578Z,97619.38
2019-05-19T08:06:06.394Z,97624.83
2019-05-19T08:08:40.437Z,97625.97
2019-05-19T08:11:13.858Z,97621.64
2019-05-19T08:13:48.671Z,97624.87
2019-05-19T08:16:22.601Z,97628.02
2019-05-19T08:18:56.852Z,97618.55
2019-05-19T08:21:30.151Z,97621.91
2019-05-19T08:24:03.937Z,97616.12
2019-05-19T08:26:38.412Z,97614.72
2019-05-19T08:29:12.335Z,97614.67
2019-05-19T08:31:45.555Z,97608.78
2019-05-19T08:34:19.973Z,97611.05
2019-05-19T08:36:54.107Z,97605.75
2019-05-19T08:39:28.290Z,97605.91
2019-05-19T08:42:02.691Z,97606.45
2019-05-19T08:44:40.024Z,97602.53
2019-05-19T08:47:14.559Z,97604.80
2019-05-19T08:49:49.822Z,97607.24
2019-05-19T08:52:25.312Z,97609.34
2019-05-19T08:54:59.353Z,97610.00
2019-05-19T08:57:33.706Z,97604.55
2019-05-19T09:00:09.815Z,97615.52
2019-05-19T09:02:43.646Z,97604.78
2019-05-19T09:05:17.962Z,97615.91
2019-05-19T09:07:51.935Z,97616.73
2019-05-19T09:10:26.247Z,97618.50
2019-05-19T09:12:59.865Z,97605.87
2019-05-19T09:15:34.458Z,97605.81
2019-05-19T09:18:08.838Z,97608.45
2019-05-19T09:20:42.708Z,97602.02
2019-05-19T09:23:18.327Z,97605.25
2019-05-19T09:25:52.897Z,97611.27
2019-05-19T09:28:27.766Z,97610.09
2019-05-19T09:31:02.161Z,97600.47
2019-05-19T09:33:36.677Z,97601.02
2019-05-19T09:36:11.866Z,97608.81
2019-05-19T09:38:47.504Z,97611.30
2019-05-19T09:41:28.189Z,97612.42
2019-05-19T09:44:03.705Z,97608.96
2019-05-19T09:46:38.350Z,97602.70
2019-05-19T09:49:31.521Z,97600.41
2019-05-19T09:52:06.696Z,97609.68
2019-05-19T09:54:45.156Z,97601.70
2019-05-19T09:57:17.540Z,97615.83
2019-05-19T09:59:52.896Z,97603.61
2019-05-19T10:02:28.521Z,97615.72
2019-05-19T10:05:02.481Z,97613.64
2019-05-19T10:07:36.462Z,97622.38
2019-05-19T10:10:18.045Z,97626.51
2019-05-19T10:12:53.431Z,97630.70
2019-05-19T10:15:28.622Z,97648.33
2019-05-19T10:18:04.951Z,97639.31
2019-05-19T10:20:40.518Z,97633.29
2019-05-19T10:23:13.935Z,97636.41
2019-05-19T10:25:47.956Z,97638.58
2019-05-19T10:28:22.767Z,97654.70
2019-05-19T10:30:58.209Z,97654.90
2019-05-19T10:33:35.042Z,97663.31
2019-05-19T10:36:08.878Z,97654.98
2019-05-19T10:38:42.919Z,97656.66
2019-05-19T10:41:20.852Z,97655.85
2019-05-19T10:44:02.007Z,97656.05
2019-05-19T10:46:36.111Z,97658.86
2019-05-19T10:49:19.841Z,97654.27
2019-05-19T10:51:53.880Z,97652.98
2019-05-19T10:54:28.443Z,97651.42
2019-05-19T10:57:04.071Z,97661.63
2019-05-19T10:59:39.159Z,97657.16
2019-05-19T11:02:13.134Z,97659.26
2019-05-19T11:04:48.097Z,97661.77
2019-05-19T11:07:22.752Z,97661.69
2019-05-19T11:10:01.985Z,97666.03
2019-05-19T11:12:37.357Z,97665.54
2019-05-19T11:15:13.076Z,97665.36
2019-05-19T11:17:46.677Z,97672.39
2019-05-19T11:20:19.453Z,97668.78
2019-05-19T11:22:53.245Z,97666.58
2019-05-19T11:25:33.805Z,97670.32
2019-05-19T11:28:05.099Z,97666.17
2019-05-19T11:30:39.848Z,97670.38
2019-05-19T11:33:13.411Z,97662.41
2019-05-19T11:35:47.187Z,97659.34
2019-05-19T11:38:22.189Z,97660.58
2019-05-19T11:40:56.031Z,97663.92
2019-05-19T11:43:30.623Z,97657.97
2019-05-19T11:46:05.464Z,97661.02
2019-05-19T11:48:40.878Z,97664.02
2019-05-19T11:51:15.443Z,97668.50
2019-05-19T11:53:50.115Z,97670.66
2019-05-19T11:56:24.307Z,97669.95
2019-05-19T11:58:58.121Z,97669.03
2019-05-19T12:01:32.649Z,97667.80
2019-05-19T12:04:07.084Z,97671.78
2019-05-19T12:06:40.571Z,97675.45
2019-05-19T12:09:17.927Z,97678.45
2019-05-19T12:11:51.693Z,97679.19
2019-05-19T12:14:26.888Z,97680.99
2019-05-19T12:17:02.111Z,97685.12
2019-05-19T12:19:35.623Z,97686.28
2019-05-19T12:22:10.289Z,97679.19
2019-05-19T12:24:43.674Z,97682.11
2019-05-19T12:27:17.344Z,97691.97
2019-05-19T12:29:52.438Z,97691.34
2019-05-19T12:32:26.454Z,97688.17
2019-05-19T12:35:01.663Z,97696.94
2019-05-19T12:37:36.345Z,97693.30
2019-05-19T12:40:12.012Z,97693.80
2019-05-19T12:42:47.501Z,97697.51
2019-05-19T12:45:26.710Z,97695.28
2019-05-19T12:48:03.603Z,97691.81
2019-05-19T12:50:37.751Z,97695.69
2019-05-19T12:53:12.446Z,97705.73
2019-05-19T12:55:46.133Z,97713.20
2019-05-19T12:58:22.134Z,97717.91
2019-05-19T13:00:57.424Z,97720.20
2019-05-19T13:03:31.608Z,97732.63
2019-05-19T13:06:06.230Z,97742.73
2019-05-19T13:08:39.438Z,97746.84
2019-05-19T13:11:13.553Z,97746.20
2019-05-19T13:13:47.417Z,97753.43
2019-05-19T13:16:23.129Z,97758.47
2019-05-19T13:18:57.128Z,97757.39
2019-05-19T13:21:37.609Z,97757.77
2019-05-19T13:24:07.282Z,97772.65
2019-05-19T13:26:55.552Z,97762.81
2019-05-19T13:29:16.847Z,97767.83
2019-05-19T13:31:52.070Z,97761.31
2019-05-19T13:34:26.361Z,97756.89
2019-05-19T13:37:01.393Z,97762.81
2019-05-19T13:39:35.426Z,97764.77
2019-05-19T13:42:09.285Z,97751.64
2019-05-19T13:44:42.936Z,97764.84
2019-05-19T13:47:16.470Z,97765.19
2019-05-19T13:49:52.343Z,97760.30
2019-05-19T13:52:26.358Z,97759.05
2019-05-19T13:55:00.364Z,97754.05
2019-05-19T13:57:33.619Z,97754.50
2019-05-19T14:00:07.566Z,97757.86
2019-05-19T14:02:41.389Z,97760.47
2019-05-19T14:05:14.910Z,97758.89
2019-05-19T14:07:48.553Z,97756.61
2019-05-19T14:10:22.111Z,97756.95
2019-05-19T14:12:55.686Z,97755.80
2019-05-19T14:15:30.693Z,97749.56
2019-05-19T14:18:05.432Z,97740.27
2019-05-19T14:20:38.998Z,97740.08
2019-05-19T14:23:13.340Z,97742.49
2019-05-19T14:25:47.932Z,97741.47
2019-05-19T14:28:21.823Z,97741.05
2019-05-19T14:30:56.090Z,97747.21
2019-05-19T14:33:30.593Z,97745.66
2019-05-19T14:36:05.743Z,97744.08
2019-05-19T14:38:41.857Z,97745.83
2019-05-19T14:41:15.457Z,97747.69
2019-05-19T14:43:49.612Z,97752.03
2019-05-19T14:46:23.918Z,97753.63
2019-05-19T14:48:59.278Z,97754.27
2019-05-19T14:51:33.030Z,97759.64
2019-05-19T14:54:08.092Z,97761.91
2019-05-19T14:56:42.151Z,97762.80
2019-05-19T14:59:16.921Z,97764.94
2019-05-19T15:01:51.390Z,97772.70
2019-05-19T15:04:27.378Z,97770.35
2019-05-19T15:07:02.289Z,97774.94
2019-05-19T15:09:37.614Z,97769.44
2019-05-19T15:12:11.878Z,97768.18
2019-05-19T15:14:46.640Z,97767.10
2019-05-19T15:17:21.183Z,97764.38
2019-05-19T15:19:57.124Z,97770.47
2019-05-19T15:22:32.353Z,97768.80
2019-05-19T15:25:07.033Z,97777.35
2019-05-19T15:27:40.748Z,97778.02
2019-05-19T15:30:14.969Z,97782.73
2019-05-19T15:32:49.721Z,97785.16
2019-05-19T15:35:24.104Z,97782.52
2019-05-19T15:37:58.371Z,97777.55
2019-05-19T15:40:32.947Z,97783.21
2019-05-19T15:43:07.848Z,97781.88
2019-05-19T15:45:41.702Z,97788.23
2019-05-19T15:48:17.794Z,97781.09
2019-05-19T15:50:52.661Z,97784.05
2019-05-19T15:53:27.925Z,97780.52
2019-05-19T15:56:03.098Z,97786.48
2019-05-19T15:58:37.236Z,97784.48
2019-05-19T16:01:13.393Z,97784.94
2019-05-19T16:03:48.015Z,97779.98
2019-05-19T16:06:22.460Z,97791.48
2019-05-19T16:08:58.293Z,97791.32
2019-05-19T16:11:35.077Z,97795.61
2019-05-19T16:14:11.572Z,97792.11
2019-05-19T16:16:48.741Z,97794.66
2019-05-19T16:19:23.373Z,97788.86
2019-05-19T16:21:57.502Z,97786.79
2019-05-19T16:24:31.646Z,97786.95
2019-05-19T16:27:05.552Z,97787.55
2019-05-19T16:29:39.653Z,97782.34
2019-05-19T16:32:15.565Z,97786.88
2019-05-19T16:34:51.347Z,97787.19
2019-05-19T16:37:25.328Z,97789.09
2019-05-19T16:39:59.209Z,97794.34
2019-05-19T16:42:33.351Z,97788.58
2019-05-19T16:45:09.554Z,97784.02
2019-05-19T16:47:43.448Z,97791.41
2019-05-19T16:50:17.415Z,97792.44
2019-05-19T16:52:52.447Z,97797.91
2019-05-19T16:55:29.259Z,97792.95
2019-05-19T16:58:03.362Z,97797.72
2019-05-19T17:00:38.021Z,97801.10
2019-05-19T17:03:12.142Z,97800.47
2019-05-19T17:05:46.381Z,97803.56
2019-05-19T17:08:22.171Z,97802.33
2019-05-19T17:10:56.581Z,97813.70
2019-05-19T17:13:31.021Z,97815.64
2019-05-19T17:16:05.088Z,97807.73
2019-05-19T17:18:39.425Z,97823.66
2019-05-19T17:21:13.466Z,97820.41
2019-05-19T17:23:47.878Z,97830.15
2019-05-19T17:26:22.247Z,97825.77
2019-05-19T17:29:00.870Z,97831.38
2019-05-19T17:31:33.509Z,97836.73
2019-05-19T17:34:07.599Z,97834.78
2019-05-19T17:36:41.157Z,97840.39
2019-05-19T17:39:15.356Z,97843.77
2019-05-19T17:41:49.813Z,97841.09
2019-05-19T17:44:25.402Z,97845.81
2019-05-19T17:47:00.743Z,97857.10
2019-05-19T17:49:35.605Z,97849.81
2019-05-19T17:52:12.431Z,97851.44
2019-05-19T17:54:50.701Z,97855.06
2019-05-19T17:57:25.864Z,97853.45
2019-05-19T18:00:00.513Z,97856.02
2019-05-19T18:02:35.637Z,97872.64
2019-05-19T18:05:09.795Z,97863.45
2019-05-19T18:07:46.516Z,97867.17
2019-05-19T18:10:20.981Z,97874.08
2019-05-19T18:12:55.220Z,97873.13
2019-05-19T18:15:30.115Z,97876.99
2019-05-19T18:18:04.475Z,97880.98
2019-05-19T18:20:38.463Z,97877.47
2019-05-19T18:23:11.980Z,97880.98
2019-05-19T18:25:45.841Z,97876.48
2019-05-19T18:28:20.669Z,97872.80
2019-05-19T18:30:55.642Z,97879.34
2019-05-19T18:33:31.261Z,97880.80
2019-05-19T18:36:05.438Z,97879.67
2019-05-19T18:38:40.558Z,97881.55
2019-05-19T18:41:15.027Z,97882.31
2019-05-19T18:43:49.123Z,97880.59
2019-05-19T18:46:23.413Z,97887.70
2019-05-19T18:48:57.621Z,97889.23
2019-05-19T18:51:31.054Z,97886.02
2019-05-19T18:54:06.318Z,97887.60
2019-05-19T18:56:51.150Z,97892.58
2019-05-19T18:59:25.746Z,97890.35
2019-05-19T19:02:00.641Z,97893.67
2019-05-19T19:04:34.276Z,97891.53
2019-05-19T19:07:08.754Z,97897.17
2019-05-19T19:09:42.809Z,97899.24
2019-05-19T19:12:16.507Z,97899.58
2019-05-19T19:14:54.311Z,97902.41
2019-05-19T19:17:28.867Z,97894.81
2019-05-19T19:20:02.628Z,97902.41
2019-05-19T19:22:38.662Z,97906.73
2019-05-19T19:25:13.497Z,97912.92
2019-05-19T19:27:48.966Z,97914.44
2019-05-19T19:30:26.483Z,97915.53
2019-05-19T19:33:01.082Z,97913.75
2019-05-19T19:35:39.351Z,97918.63
2019-05-19T19:38:12.613Z,97924.50
2019-05-19T19:40:47.123Z,97930.77
2019-05-19T19:43:22.189Z,97930.22
2019-05-19T19:45:56.732Z,97935.70
2019-05-19T19:48:31.095Z,97941.15
2019-05-19T19:51:06.701Z,97941.55
2019-05-19T19:53:41.171Z,97938.39
2019-05-19T19:56:19.302Z,97943.91
2019-05-19T19:58:54.708Z,97951.00
2019-05-19T20:01:29.357Z,97952.34
2019-05-19T20:04:04.511Z,97957.23
2019-05-19T20:06:39.909Z,97969.62
2019-05-19T20:09:14.781Z,97968.39
2019-05-19T20:11:48.898Z,97972.35
2019-05-19T20:14:24.603Z,97975.58
2019-05-19T20:16:59.589Z,97976.02
2019-05-19T20:19:38.131Z,97968.39
2019-05-19T20:22:13.104Z,97968.47
2019-05-19T20:24:50.125Z,97969.38
2019-05-19T20:27:24.160Z,97967.57
2019-05-19T20:29:59.829Z,97968.41
2019-05-19T20:32:33.350Z,97965.03
2019-05-19T20:35:10.475Z,97971.87
2019-05-19T20:37:47.083Z,97961.91
2019-05-19T20:40:25.225Z,97961.62
2019-05-19T20:43:05.263Z,97962.89
2019-05-19T20:45:40.083Z,97963.29
2019-05-19T20:48:14.593Z,97963.72
2019-05-19T20:50:51.211Z,97970.59
2019-05-19T20:53:25.696Z,97964.73
2019-05-19T20:56:01.190Z,97969.00
2019-05-19T20:58:34.716Z,97971.47
2019-05-19T21:01:13.021Z,97966.73
2019-05-19T21:03:47.166Z,97965.50
2019-05-19T21:06:22.124Z,97964.89
2019-05-19T21:08:56.619Z,97967.14
2019-05-19T21:11:31.401Z,97965.44
2019-05-19T21:14:09.165Z,97964.59
2019-05-19T21:16:44.873Z,97955.22
2019-05-19T21:19:19.333Z,97964.92
2019-05-19T21:21:56.323Z,97960.45
2019-05-19T21:24:33.514Z,97957.55
2019-05-19T21:27:08.184Z,97953.70
2019-05-19T21:29:42.549Z,97957.26
2019-05-19T21:32:18.098Z,97954.64
2019-05-19T21:34:52.703Z,97957.55
2019-05-19T21:37:26.611Z,97964.70
2019-05-19T21:40:06.376Z,97964.02
2019-05-19T21:42:40.655Z,97961.93
2019-05-19T21:45:15.509Z,97961.24
2019-05-19T21:47:53.328Z,97969.70
2019-05-19T21:50:27.722Z,97970.47
2019-05-19T21:53:02.270Z,97962.27
2019-05-19T21:55:36.410Z,97968.80
2019-05-19T21:58:10.578Z,97960.70
2019-05-19T22:00:46.058Z,97959.72
2019-05-19T22:03:20.770Z,97960.09
2019-05-19T22:06:01.421Z,97964.92
2019-05-19T22:08:36.726Z,97961.47
2019-05-19T22:11:13.279Z,97969.80
2019-05-19T22:13:47.475Z,97960.02
2019-05-19T22:16:21.385Z,97954.92
2019-05-19T22:18:55.537Z,97957.06
2019-05-19T22:21:30.627Z,97952.64
2019-05-19T22:24:04.601Z,97956.31
2019-05-19T22:26:39.087Z,97952.02
2019-05-19T22:29:13.753Z,97949.77
2019-05-19T22:31:47.501Z,97951.55
2019-05-19T22:34:21.271Z,97945.63
2019-05-19T22:36:55.197Z,97949.08
2019-05-19T22:39:29.170Z,97950.02
2019-05-19T22:42:02.824Z,97954.31
2019-05-19T22:44:37.109Z,97958.09
2019-05-19T22:47:11.463Z,97960.67
2019-05-19T22:49:52.754Z,97959.44
2019-05-19T22:52:27.137Z,97956.20
2019-05-19T22:55:02.329Z,97960.13
2019-05-19T22:57:36.532Z,97959.44
2019-05-19T23:00:11.779Z,97962.85
2019-05-19T23:02:45.256Z,97968.45
2019-05-19T23:05:19.848Z,97965.55
2019-05-19T23:07:53.037Z,97971.61
2019-05-19T23:10:26.152Z,97968.05
2019-05-19T23:12:59.555Z,97964.45
2019-05-19T23:15:33.134Z,97966.34
2019-05-19T23:18:06.639Z,97959.17
2019-05-19T23:20:40.096Z,97961.17
2019-05-19T23:23:13.618Z,97956.74
2019-05-19T23:25:47.248Z,97954.63
2019-05-19T23:28:20.732Z,97950.48
2019-05-19T23:30:54.435Z,97945.52
2019-05-19T23:33:28.335Z,97945.52
2019-05-19T23:36:02.264Z,97938.90
2019-05-19T23:38:35.532Z,97932.28
2019-05-19T23:41:08.848Z,97924.72
2019-05-19T23:43:42.767Z,97928.10
2019-05-19T23:46:16.399Z,97933.45
2019-05-19T23:48:49.645Z,97929.38
2019-05-19T23:51:23.381Z,97929.59
2019-05-19T23:53:56.446Z,97933.56
2019-05-19T23:56:30.065Z,97931.48
2019-05-19T23:59:04.403Z,97926.02
